Terminal Aerodrome Forecast
Issued by NWS

Home | Current Version | Previous Version | Graphics & Text | Print | Product List | Glossary On
Versions: 1 2 3 4 5 6 7 8 9 10 11 12 13 14 15 16 17 18 19 20 21 22 23 24 25 26 27 28 29
000
FTUS43 KABR 181605 AAB
TAFATY
TAF AMD
KATY 181605Z 1816/1912 18014KT P6SM OVC200 WS020/23040KT
     FM181700 22012KT P6SM OVC150
     FM181900 27009KT P6SM OVC110
     FM182000 33010KT P6SM OVC040
     FM190600 01018G25KT 3SM -SN OVC010
     FM191000 02018G25KT 1 1/2SM -SN OVC010=

USA.gov is the U.S. government's official web portal to all federal, state and local government web resources and services.